sensor_id;sensor_type;location;lat;lon;timestamp;P1;durP1;ratioP1;P2;durP2;ratioP2
209;SDS011;90;48.810;9.120;2023-04-24T00:01:44;2.00;;;1.80;;
209;SDS011;90;48.810;9.120;2023-04-24T00:04:11;2.70;;;1.73;;
209;SDS011;90;48.810;9.120;2023-04-24T00:06:41;1.90;;;1.63;;
209;SDS011;90;48.810;9.120;2023-04-24T00:09:08;1.90;;;1.53;;
209;SDS011;90;48.810;9.120;2023-04-24T00:11:37;3.20;;;1.80;;
209;SDS011;90;48.810;9.120;2023-04-24T00:14:04;2.50;;;1.80;;
209;SDS011;90;48.810;9.120;2023-04-24T00:16:31;9.03;;;1.70;;
209;SDS011;90;48.810;9.120;2023-04-24T00:18:57;3.80;;;1.67;;
209;SDS011;90;48.810;9.120;2023-04-24T00:21:25;2.80;;;1.90;;
209;SDS011;90;48.810;9.120;2023-04-24T00:23:52;2.00;;;1.80;;
209;SDS011;90;48.810;9.120;2023-04-24T00:26:19;2.00;;;1.70;;
209;SDS011;90;48.810;9.120;2023-04-24T00:28:47;3.20;;;1.93;;
209;SDS011;90;48.810;9.120;2023-04-24T00:31:14;1.87;;;1.60;;
209;SDS011;90;48.810;9.120;2023-04-24T00:33:41;2.43;;;1.90;;
209;SDS011;90;48.810;9.120;2023-04-24T00:36:08;3.10;;;2.20;;
209;SDS011;90;48.810;9.120;2023-04-24T00:38:35;2.63;;;1.70;;
209;SDS011;90;48.810;9.120;2023-04-24T00:41:02;2.30;;;2.13;;
209;SDS011;90;48.810;9.120;2023-04-24T00:43:29;3.37;;;1.80;;
209;SDS011;90;48.810;9.120;2023-04-24T00:45:57;5.37;;;1.80;;
209;SDS011;90;48.810;9.120;2023-04-24T00:48:24;2.53;;;1.50;;
209;SDS011;90;48.810;9.120;2023-04-24T00:50:51;1.80;;;1.40;;
209;SDS011;90;48.810;9.120;2023-04-24T00:53:18;2.30;;;1.70;;
209;SDS011;90;48.810;9.120;2023-04-24T00:55:45;2.00;;;1.50;;
209;SDS011;90;48.810;9.120;2023-04-24T00:58:13;3.00;;;1.63;;
209;SDS011;90;48.810;9.120;2023-04-24T01:00:40;2.60;;;1.90;;
209;SDS011;90;48.810;9.120;2023-04-24T01:03:08;2.00;;;1.90;;
209;SDS011;90;48.810;9.120;2023-04-24T01:05:36;3.60;;;1.80;;
209;SDS011;90;48.810;9.120;2023-04-24T01:08:03;5.63;;;1.60;;
209;SDS011;90;48.810;9.120;2023-04-24T01:10:29;2.50;;;1.93;;
209;SDS011;90;48.810;9.120;2023-04-24T01:12:59;2.70;;;1.67;;
209;SDS011;90;48.810;9.120;2023-04-24T01:15:25;6.03;;;1.40;;
209;SDS011;90;48.810;9.120;2023-04-24T01:17:52;2.30;;;1.60;;
209;SDS011;90;48.810;9.120;2023-04-24T01:20:20;1.90;;;1.50;;
209;SDS011;90;48.810;9.120;2023-04-24T01:22:51;3.30;;;2.00;;
209;SDS011;90;48.810;9.120;2023-04-24T01:25:17;2.27;;;1.70;;
209;SDS011;90;48.810;9.120;2023-04-24T01:27:44;2.00;;;1.50;;
209;SDS011;90;48.810;9.120;2023-04-24T01:30:11;2.20;;;1.80;;
209;SDS011;90;48.810;9.120;2023-04-24T01:32:39;1.90;;;1.40;;
209;SDS011;90;48.810;9.120;2023-04-24T01:35:07;1.90;;;1.70;;
209;SDS011;90;48.810;9.120;2023-04-24T01:37:34;3.80;;;1.60;;
209;SDS011;90;48.810;9.120;2023-04-24T01:40:03;2.20;;;1.60;;
209;SDS011;90;48.810;9.120;2023-04-24T01:42:31;2.00;;;1.70;;
209;SDS011;90;48.810;9.120;2023-04-24T01:44:58;4.60;;;1.70;;
209;SDS011;90;48.810;9.120;2023-04-24T01:47:26;2.57;;;1.60;;
209;SDS011;90;48.810;9.120;2023-04-24T01:49:54;1.87;;;1.40;;
209;SDS011;90;48.810;9.120;2023-04-24T01:52:21;2.20;;;1.70;;
209;SDS011;90;48.810;9.120;2023-04-24T01:54:48;3.30;;;1.60;;
209;SDS011;90;48.810;9.120;2023-04-24T01:57:16;2.27;;;1.80;;
209;SDS011;90;48.810;9.120;2023-04-24T01:59:43;8.87;;;2.10;;
209;SDS011;90;48.810;9.120;2023-04-24T02:02:10;2.03;;;1.63;;
209;SDS011;90;48.810;9.120;2023-04-24T02:04:37;12.53;;;2.03;;
209;SDS011;90;48.810;9.120;2023-04-24T02:07:05;2.10;;;1.80;;
209;SDS011;90;48.810;9.120;2023-04-24T02:09:32;2.27;;;1.53;;
209;SDS011;90;48.810;9.120;2023-04-24T02:11:59;2.77;;;1.77;;
209;SDS011;90;48.810;9.120;2023-04-24T02:14:27;2.53;;;1.90;;
209;SDS011;90;48.810;9.120;2023-04-24T02:16:54;3.77;;;2.00;;
209;SDS011;90;48.810;9.120;2023-04-24T02:19:21;3.63;;;1.60;;
209;SDS011;90;48.810;9.120;2023-04-24T02:21:47;3.90;;;1.70;;
209;SDS011;90;48.810;9.120;2023-04-24T02:24:15;3.97;;;1.60;;
209;SDS011;90;48.810;9.120;2023-04-24T02:26:42;2.70;;;2.00;;
209;SDS011;90;48.810;9.120;2023-04-24T02:29:09;2.10;;;1.50;;
209;SDS011;90;48.810;9.120;2023-04-24T02:31:37;2.90;;;1.70;;
209;SDS011;90;48.810;9.120;2023-04-24T02:34:04;2.27;;;2.00;;
209;SDS011;90;48.810;9.120;2023-04-24T02:36:31;1.80;;;1.43;;
209;SDS011;90;48.810;9.120;2023-04-24T02:38:58;4.10;;;1.90;;
209;SDS011;90;48.810;9.120;2023-04-24T02:41:26;1.97;;;1.73;;
209;SDS011;90;48.810;9.120;2023-04-24T02:43:56;2.53;;;1.93;;
209;SDS011;90;48.810;9.120;2023-04-24T02:46:23;4.33;;;2.00;;
209;SDS011;90;48.810;9.120;2023-04-24T02:48:53;3.07;;;1.87;;
209;SDS011;90;48.810;9.120;2023-04-24T02:51:19;3.60;;;2.00;;
209;SDS011;90;48.810;9.120;2023-04-24T02:53:46;2.30;;;1.70;;
209;SDS011;90;48.810;9.120;2023-04-24T02:56:13;2.20;;;1.70;;
209;SDS011;90;48.810;9.120;2023-04-24T02:58:39;3.00;;;1.90;;
209;SDS011;90;48.810;9.120;2023-04-24T03:01:07;2.20;;;1.83;;
209;SDS011;90;48.810;9.120;2023-04-24T03:03:34;2.33;;;1.90;;
209;SDS011;90;48.810;9.120;2023-04-24T03:06:02;3.30;;;1.80;;
209;SDS011;90;48.810;9.120;2023-04-24T03:08:30;2.30;;;1.87;;
209;SDS011;90;48.810;9.120;2023-04-24T03:10:57;2.83;;;1.80;;
209;SDS011;90;48.810;9.120;2023-04-24T03:13:24;2.40;;;1.97;;
209;SDS011;90;48.810;9.120;2023-04-24T03:15:51;3.43;;;1.83;;
209;SDS011;90;48.810;9.120;2023-04-24T03:18:17;2.17;;;2.00;;
209;SDS011;90;48.810;9.120;2023-04-24T03:20:45;2.63;;;2.00;;
209;SDS011;90;48.810;9.120;2023-04-24T03:23:13;3.80;;;2.17;;
209;SDS011;90;48.810;9.120;2023-04-24T03:25:40;4.70;;;2.20;;
209;SDS011;90;48.810;9.120;2023-04-24T03:28:07;1.90;;;1.57;;
209;SDS011;90;48.810;9.120;2023-04-24T03:30:37;2.23;;;1.80;;
209;SDS011;90;48.810;9.120;2023-04-24T03:33:04;2.17;;;1.87;;
209;SDS011;90;48.810;9.120;2023-04-24T03:35:31;3.03;;;2.00;;
209;SDS011;90;48.810;9.120;2023-04-24T03:37:57;2.83;;;1.57;;
209;SDS011;90;48.810;9.120;2023-04-24T03:40:25;2.60;;;1.80;;
209;SDS011;90;48.810;9.120;2023-04-24T03:42:54;2.60;;;1.90;;
209;SDS011;90;48.810;9.120;2023-04-24T03:45:21;2.23;;;1.90;;
209;SDS011;90;48.810;9.120;2023-04-24T03:47:48;1.90;;;1.63;;
209;SDS011;90;48.810;9.120;2023-04-24T03:50:15;2.33;;;1.90;;
209;SDS011;90;48.810;9.120;2023-04-24T03:52:41;3.17;;;1.80;;
209;SDS011;90;48.810;9.120;2023-04-24T03:55:08;2.00;;;1.80;;
209;SDS011;90;48.810;9.120;2023-04-24T03:57:39;2.20;;;1.80;;
209;SDS011;90;48.810;9.120;2023-04-24T04:00:07;1.90;;;1.60;;
209;SDS011;90;48.810;9.120;2023-04-24T04:02:34;5.40;;;2.10;;
209;SDS011;90;48.810;9.120;2023-04-24T04:05:01;2.60;;;1.80;;
209;SDS011;90;48.810;9.120;2023-04-24T04:07:28;2.93;;;1.50;;
209;SDS011;90;48.810;9.120;2023-04-24T04:09:55;1.80;;;1.60;;
209;SDS011;90;48.810;9.120;2023-04-24T04:12:22;2.00;;;1.60;;
209;SDS011;90;48.810;9.120;2023-04-24T04:14:51;2.73;;;1.90;;
209;SDS011;90;48.810;9.120;2023-04-24T04:17:17;2.33;;;1.70;;
209;SDS011;90;48.810;9.120;2023-04-24T04:19:44;2.33;;;1.67;;
209;SDS011;90;48.810;9.120;2023-04-24T04:22:11;2.40;;;2.03;;
209;SDS011;90;48.810;9.120;2023-04-24T04:24:37;3.27;;;2.13;;
209;SDS011;90;48.810;9.120;2023-04-24T04:27:05;3.53;;;2.37;;
209;SDS011;90;48.810;9.120;2023-04-24T04:29:33;3.83;;;2.37;;
209;SDS011;90;48.810;9.120;2023-04-24T04:32:02;2.47;;;2.33;;
209;SDS011;90;48.810;9.120;2023-04-24T04:34:28;2.80;;;2.60;;
209;SDS011;90;48.810;9.120;2023-04-24T04:36:56;2.30;;;2.00;;
209;SDS011;90;48.810;9.120;2023-04-24T04:39:24;2.20;;;2.10;;
209;SDS011;90;48.810;9.120;2023-04-24T04:41:53;2.70;;;2.50;;
209;SDS011;90;48.810;9.120;2023-04-24T04:44:19;2.77;;;2.17;;
209;SDS011;90;48.810;9.120;2023-04-24T04:46:46;2.43;;;2.00;;
209;SDS011;90;48.810;9.120;2023-04-24T04:49:14;2.50;;;2.30;;
209;SDS011;90;48.810;9.120;2023-04-24T04:51:41;2.83;;;2.20;;
209;SDS011;90;48.810;9.120;2023-04-24T04:54:08;2.10;;;2.00;;
209;SDS011;90;48.810;9.120;2023-04-24T04:56:35;2.47;;;2.00;;
209;SDS011;90;48.810;9.120;2023-04-24T04:59:01;2.90;;;2.27;;
209;SDS011;90;48.810;9.120;2023-04-24T05:01:28;3.10;;;2.53;;
209;SDS011;90;48.810;9.120;2023-04-24T05:03:55;2.83;;;2.40;;
209;SDS011;90;48.810;9.120;2023-04-24T05:06:23;2.70;;;2.07;;
209;SDS011;90;48.810;9.120;2023-04-24T05:08:51;2.77;;;2.23;;
209;SDS011;90;48.810;9.120;2023-04-24T05:11:21;2.20;;;1.83;;
209;SDS011;90;48.810;9.120;2023-04-24T05:13:48;3.53;;;2.13;;
209;SDS011;90;48.810;9.120;2023-04-24T05:16:15;2.20;;;2.00;;
209;SDS011;90;48.810;9.120;2023-04-24T05:18:42;2.70;;;2.17;;
209;SDS011;90;48.810;9.120;2023-04-24T05:21:09;2.20;;;2.00;;
209;SDS011;90;48.810;9.120;2023-04-24T05:23:38;2.93;;;2.00;;
209;SDS011;90;48.810;9.120;2023-04-24T05:26:04;3.07;;;2.57;;
209;SDS011;90;48.810;9.120;2023-04-24T05:28:31;2.40;;;2.30;;
209;SDS011;90;48.810;9.120;2023-04-24T05:30:58;3.80;;;2.50;;
209;SDS011;90;48.810;9.120;2023-04-24T05:33:26;2.80;;;2.60;;
209;SDS011;90;48.810;9.120;2023-04-24T05:35:52;3.63;;;2.70;;
209;SDS011;90;48.810;9.120;2023-04-24T05:38:19;5.73;;;2.20;;
209;SDS011;90;48.810;9.120;2023-04-24T05:40:47;3.50;;;2.60;;
209;SDS011;90;48.810;9.120;2023-04-24T05:43:14;2.57;;;2.37;;
209;SDS011;90;48.810;9.120;2023-04-24T05:45:41;3.17;;;2.97;;
209;SDS011;90;48.810;9.120;2023-04-24T05:48:08;2.73;;;2.53;;
209;SDS011;90;48.810;9.120;2023-04-24T05:50:35;2.77;;;2.60;;
209;SDS011;90;48.810;9.120;2023-04-24T05:53:01;3.00;;;2.10;;
209;SDS011;90;48.810;9.120;2023-04-24T05:55:28;2.47;;;2.27;;
209;SDS011;90;48.810;9.120;2023-04-24T05:57:58;3.40;;;3.20;;
209;SDS011;90;48.810;9.120;2023-04-24T06:00:27;2.80;;;2.60;;
209;SDS011;90;48.810;9.120;2023-04-24T06:02:54;3.00;;;2.60;;
209;SDS011;90;48.810;9.120;2023-04-24T06:05:22;2.73;;;2.53;;
209;SDS011;90;48.810;9.120;2023-04-24T06:07:49;3.33;;;2.63;;
209;SDS011;90;48.810;9.120;2023-04-24T06:10:16;2.97;;;2.40;;
209;SDS011;90;48.810;9.120;2023-04-24T06:12:43;3.47;;;2.72;;
209;SDS011;90;48.810;9.120;2023-04-24T06:15:11;3.40;;;3.20;;
209;SDS011;90;48.810;9.120;2023-04-24T06:17:38;4.07;;;3.87;;
209;SDS011;90;48.810;9.120;2023-04-24T06:20:05;3.73;;;3.00;;
209;SDS011;90;48.810;9.120;2023-04-24T06:22:33;3.03;;;2.83;;
209;SDS011;90;48.810;9.120;2023-04-24T06:25:00;3.27;;;3.07;;
209;SDS011;90;48.810;9.120;2023-04-24T06:27:27;3.10;;;3.00;;
209;SDS011;90;48.810;9.120;2023-04-24T06:29:54;5.33;;;3.70;;
209;SDS011;90;48.810;9.120;2023-04-24T06:32:22;4.53;;;3.77;;
209;SDS011;90;48.810;9.120;2023-04-24T06:34:50;3.63;;;3.27;;
209;SDS011;90;48.810;9.120;2023-04-24T06:37:18;4.37;;;2.70;;
209;SDS011;90;48.810;9.120;2023-04-24T06:39:45;4.40;;;3.30;;
209;SDS011;90;48.810;9.120;2023-04-24T06:42:12;3.70;;;2.80;;
209;SDS011;90;48.810;9.120;2023-04-24T06:44:39;5.10;;;2.77;;
209;SDS011;90;48.810;9.120;2023-04-24T06:47:06;2.83;;;2.63;;
209;SDS011;90;48.810;9.120;2023-04-24T06:49:35;3.57;;;3.07;;
209;SDS011;90;48.810;9.120;2023-04-24T06:52:02;3.40;;;3.20;;
209;SDS011;90;48.810;9.120;2023-04-24T06:54:29;3.17;;;2.63;;
209;SDS011;90;48.810;9.120;2023-04-24T06:56:57;3.20;;;3.00;;
209;SDS011;90;48.810;9.120;2023-04-24T06:59:25;4.70;;;3.30;;
209;SDS011;90;48.810;9.120;2023-04-24T07:01:52;3.50;;;3.30;;
209;SDS011;90;48.810;9.120;2023-04-24T07:04:20;3.87;;;3.10;;
209;SDS011;90;48.810;9.120;2023-04-24T07:06:48;4.57;;;3.27;;
209;SDS011;90;48.810;9.120;2023-04-24T07:09:16;3.17;;;2.97;;
209;SDS011;90;48.810;9.120;2023-04-24T07:11:43;3.63;;;3.10;;
209;SDS011;90;48.810;9.120;2023-04-24T07:14:10;3.87;;;2.97;;
209;SDS011;90;48.810;9.120;2023-04-24T07:16:37;3.30;;;3.10;;
209;SDS011;90;48.810;9.120;2023-04-24T07:19:04;6.50;;;3.40;;
209;SDS011;90;48.810;9.120;2023-04-24T07:21:30;3.50;;;3.10;;
209;SDS011;90;48.810;9.120;2023-04-24T07:23:58;3.77;;;3.57;;
209;SDS011;90;48.810;9.120;2023-04-24T07:26:26;3.93;;;3.43;;
209;SDS011;90;48.810;9.120;2023-04-24T07:28:53;3.53;;;3.33;;
209;SDS011;90;48.810;9.120;2023-04-24T07:31:19;3.57;;;3.00;;
209;SDS011;90;48.810;9.120;2023-04-24T07:33:46;3.10;;;2.90;;
209;SDS011;90;48.810;9.120;2023-04-24T07:36:13;3.33;;;3.07;;
209;SDS011;90;48.810;9.120;2023-04-24T07:38:43;6.87;;;2.80;;
209;SDS011;90;48.810;9.120;2023-04-24T07:41:12;3.57;;;2.87;;
209;SDS011;90;48.810;9.120;2023-04-24T07:43:39;3.80;;;3.20;;
209;SDS011;90;48.810;9.120;2023-04-24T07:46:06;2.90;;;2.77;;
209;SDS011;90;48.810;9.120;2023-04-24T07:48:32;2.70;;;2.50;;
209;SDS011;90;48.810;9.120;2023-04-24T07:51:00;5.53;;;2.60;;
209;SDS011;90;48.810;9.120;2023-04-24T07:53:26;2.80;;;2.57;;
209;SDS011;90;48.810;9.120;2023-04-24T07:55:53;5.07;;;2.97;;
209;SDS011;90;48.810;9.120;2023-04-24T07:58:22;4.10;;;2.77;;
209;SDS011;90;48.810;9.120;2023-04-24T08:00:49;4.63;;;3.17;;
209;SDS011;90;48.810;9.120;2023-04-24T08:03:16;4.67;;;2.83;;
209;SDS011;90;48.810;9.120;2023-04-24T08:05:44;5.70;;;2.60;;
209;SDS011;90;48.810;9.120;2023-04-24T08:08:11;2.80;;;2.50;;
209;SDS011;90;48.810;9.120;2023-04-24T08:10:38;5.00;;;2.90;;
209;SDS011;90;48.810;9.120;2023-04-24T08:13:05;3.77;;;2.70;;
209;SDS011;90;48.810;9.120;2023-04-24T08:15:33;2.83;;;2.63;;
209;SDS011;90;48.810;9.120;2023-04-24T08:18:00;3.43;;;3.23;;
209;SDS011;90;48.810;9.120;2023-04-24T08:20:27;3.03;;;2.63;;
209;SDS011;90;48.810;9.120;2023-04-24T08:22:54;7.20;;;3.10;;
209;SDS011;90;48.810;9.120;2023-04-24T08:25:21;7.67;;;3.00;;
209;SDS011;90;48.810;9.120;2023-04-24T08:27:49;4.10;;;3.73;;
209;SDS011;90;48.810;9.120;2023-04-24T08:30:16;4.10;;;3.53;;
209;SDS011;90;48.810;9.120;2023-04-24T08:32:45;9.10;;;3.77;;
209;SDS011;90;48.810;9.120;2023-04-24T08:35:12;3.30;;;3.10;;
209;SDS011;90;48.810;9.120;2023-04-24T08:37:39;2.83;;;2.63;;
209;SDS011;90;48.810;9.120;2023-04-24T08:40:06;3.20;;;3.00;;
209;SDS011;90;48.810;9.120;2023-04-24T08:42:38;3.30;;;2.93;;
209;SDS011;90;48.810;9.120;2023-04-24T08:45:07;3.00;;;2.80;;
209;SDS011;90;48.810;9.120;2023-04-24T08:47:35;3.10;;;2.85;;
209;SDS011;90;48.810;9.120;2023-04-24T08:50:05;3.30;;;3.10;;
209;SDS011;90;48.810;9.120;2023-04-24T08:52:33;2.90;;;2.70;;
209;SDS011;90;48.810;9.120;2023-04-24T08:55:01;3.80;;;2.70;;
209;SDS011;90;48.810;9.120;2023-04-24T08:57:28;3.33;;;2.90;;
209;SDS011;90;48.810;9.120;2023-04-24T08:59:56;3.90;;;2.90;;
209;SDS011;90;48.810;9.120;2023-04-24T09:02:24;5.43;;;4.07;;
209;SDS011;90;48.810;9.120;2023-04-24T09:04:51;3.00;;;2.87;;
209;SDS011;90;48.810;9.120;2023-04-24T09:07:20;3.00;;;2.80;;
209;SDS011;90;48.810;9.120;2023-04-24T09:09:51;5.20;;;3.20;;
209;SDS011;90;48.810;9.120;2023-04-24T09:12:18;3.30;;;3.10;;
209;SDS011;90;48.810;9.120;2023-04-24T09:14:45;3.13;;;2.93;;
209;SDS011;90;48.810;9.120;2023-04-24T09:17:14;3.90;;;2.77;;
209;SDS011;90;48.810;9.120;2023-04-24T09:19:41;4.40;;;2.60;;
209;SDS011;90;48.810;9.120;2023-04-24T09:22:09;3.10;;;2.90;;
209;SDS011;90;48.810;9.120;2023-04-24T09:24:37;3.30;;;2.83;;
209;SDS011;90;48.810;9.120;2023-04-24T09:27:05;5.30;;;2.57;;
209;SDS011;90;48.810;9.120;2023-04-24T09:29:32;3.07;;;2.87;;
209;SDS011;90;48.810;9.120;2023-04-24T09:31:59;3.37;;;2.73;;
209;SDS011;90;48.810;9.120;2023-04-24T09:34:44;5.13;;;2.93;;
209;SDS011;90;48.810;9.120;2023-04-24T09:37:18;2.80;;;2.60;;
209;SDS011;90;48.810;9.120;2023-04-24T09:40:08;6.40;;;3.10;;
209;SDS011;90;48.810;9.120;2023-04-24T09:42:36;3.47;;;3.27;;
209;SDS011;90;48.810;9.120;2023-04-24T09:45:04;3.50;;;2.93;;
209;SDS011;90;48.810;9.120;2023-04-24T09:47:36;3.53;;;3.40;;
209;SDS011;90;48.810;9.120;2023-04-24T09:50:10;2.93;;;2.83;;
209;SDS011;90;48.810;9.120;2023-04-24T09:52:39;4.20;;;2.80;;
209;SDS011;90;48.810;9.120;2023-04-24T09:55:12;2.63;;;2.50;;
209;SDS011;90;48.810;9.120;2023-04-24T09:57:49;3.03;;;2.60;;
209;SDS011;90;48.810;9.120;2023-04-24T10:00:23;3.00;;;2.80;;
209;SDS011;90;48.810;9.120;2023-04-24T10:02:55;2.77;;;2.57;;
209;SDS011;90;48.810;9.120;2023-04-24T10:05:23;3.13;;;2.97;;
209;SDS011;90;48.810;9.120;2023-04-24T10:07:51;2.87;;;2.67;;
209;SDS011;90;48.810;9.120;2023-04-24T10:10:19;3.70;;;2.60;;
209;SDS011;90;48.810;9.120;2023-04-24T10:12:46;2.80;;;2.60;;
209;SDS011;90;48.810;9.120;2023-04-24T10:15:13;2.80;;;2.43;;
209;SDS011;90;48.810;9.120;2023-04-24T10:17:45;3.30;;;2.63;;
209;SDS011;90;48.810;9.120;2023-04-24T10:20:17;3.07;;;2.37;;
209;SDS011;90;48.810;9.120;2023-04-24T10:22:45;2.37;;;2.20;;
209;SDS011;90;48.810;9.120;2023-04-24T10:25:14;2.87;;;2.40;;
209;SDS011;90;48.810;9.120;2023-04-24T10:27:44;3.20;;;2.83;;
209;SDS011;90;48.810;9.120;2023-04-24T10:30:12;3.70;;;3.00;;
209;SDS011;90;48.810;9.120;2023-04-24T10:32:39;3.03;;;2.83;;
209;SDS011;90;48.810;9.120;2023-04-24T10:35:06;4.40;;;3.03;;
209;SDS011;90;48.810;9.120;2023-04-24T10:37:35;2.60;;;2.50;;
209;SDS011;90;48.810;9.120;2023-04-24T10:40:04;3.70;;;2.90;;
209;SDS011;90;48.810;9.120;2023-04-24T10:42:33;3.00;;;2.53;;
209;SDS011;90;48.810;9.120;2023-04-24T10:45:05;3.23;;;2.60;;
209;SDS011;90;48.810;9.120;2023-04-24T10:47:39;2.70;;;2.53;;
209;SDS011;90;48.810;9.120;2023-04-24T10:50:07;2.93;;;2.77;;
209;SDS011;90;48.810;9.120;2023-04-24T10:52:44;4.20;;;2.73;;
209;SDS011;90;48.810;9.120;2023-04-24T10:55:12;4.67;;;2.70;;
209;SDS011;90;48.810;9.120;2023-04-24T10:57:39;3.30;;;2.70;;
209;SDS011;90;48.810;9.120;2023-04-24T11:00:14;2.40;;;2.20;;
209;SDS011;90;48.810;9.120;2023-04-24T11:02:45;2.43;;;2.27;;
209;SDS011;90;48.810;9.120;2023-04-24T11:05:15;2.83;;;2.63;;
209;SDS011;90;48.810;9.120;2023-04-24T11:10:39;3.00;;;2.80;;
209;SDS011;90;48.810;9.120;2023-04-24T11:13:07;3.60;;;2.77;;
209;SDS011;90;48.810;9.120;2023-04-24T11:15:35;2.90;;;2.70;;
209;SDS011;90;48.810;9.120;2023-04-24T11:18:02;3.17;;;2.70;;
209;SDS011;90;48.810;9.120;2023-04-24T11:20:29;3.13;;;2.50;;
209;SDS011;90;48.810;9.120;2023-04-24T11:22:58;3.70;;;2.90;;
209;SDS011;90;48.810;9.120;2023-04-24T11:25:30;6.20;;;3.10;;
209;SDS011;90;48.810;9.120;2023-04-24T11:28:02;3.37;;;3.17;;
209;SDS011;90;48.810;9.120;2023-04-24T11:30:31;3.00;;;2.80;;
209;SDS011;90;48.810;9.120;2023-04-24T11:33:03;3.13;;;2.97;;
209;SDS011;90;48.810;9.120;2023-04-24T11:35:34;3.40;;;3.20;;
209;SDS011;90;48.810;9.120;2023-04-24T11:38:02;6.17;;;3.03;;
209;SDS011;90;48.810;9.120;2023-04-24T11:40:30;3.00;;;2.80;;
209;SDS011;90;48.810;9.120;2023-04-24T11:42:59;3.03;;;2.70;;
209;SDS011;90;48.810;9.120;2023-04-24T11:45:27;2.80;;;2.60;;
209;SDS011;90;48.810;9.120;2023-04-24T11:47:55;3.00;;;2.83;;
209;SDS011;90;48.810;9.120;2023-04-24T11:50:25;3.37;;;2.53;;
209;SDS011;90;48.810;9.120;2023-04-24T11:52:54;2.97;;;2.70;;
209;SDS011;90;48.810;9.120;2023-04-24T11:55:23;2.87;;;2.67;;
209;SDS011;90;48.810;9.120;2023-04-24T11:57:52;2.70;;;2.50;;
209;SDS011;90;48.810;9.120;2023-04-24T12:00:22;3.10;;;2.90;;
209;SDS011;90;48.810;9.120;2023-04-24T12:02:50;2.77;;;2.60;;
209;SDS011;90;48.810;9.120;2023-04-24T12:05:20;3.73;;;2.90;;
209;SDS011;90;48.810;9.120;2023-04-24T12:07:48;5.70;;;3.23;;
209;SDS011;90;48.810;9.120;2023-04-24T12:10:19;3.27;;;3.07;;
209;SDS011;90;48.810;9.120;2023-04-24T12:12:46;3.63;;;3.03;;
209;SDS011;90;48.810;9.120;2023-04-24T12:15:15;3.30;;;2.93;;
209;SDS011;90;48.810;9.120;2023-04-24T12:17:43;3.50;;;3.30;;
209;SDS011;90;48.810;9.120;2023-04-24T12:20:10;7.03;;;2.80;;
209;SDS011;90;48.810;9.120;2023-04-24T12:22:44;3.77;;;3.10;;
209;SDS011;90;48.810;9.120;2023-04-24T12:25:14;2.90;;;2.70;;
209;SDS011;90;48.810;9.120;2023-04-24T12:27:41;2.83;;;2.67;;
209;SDS011;90;48.810;9.120;2023-04-24T12:30:10;2.90;;;2.70;;
209;SDS011;90;48.810;9.120;2023-04-24T12:32:42;2.93;;;2.80;;
209;SDS011;90;48.810;9.120;2023-04-24T12:35:11;2.87;;;2.67;;
209;SDS011;90;48.810;9.120;2023-04-24T12:37:38;3.00;;;2.83;;
209;SDS011;90;48.810;9.120;2023-04-24T12:40:09;3.77;;;3.10;;
209;SDS011;90;48.810;9.120;2023-04-24T12:42:42;3.43;;;2.90;;
209;SDS011;90;48.810;9.120;2023-04-24T12:45:11;3.67;;;3.40;;
209;SDS011;90;48.810;9.120;2023-04-24T12:47:38;3.17;;;2.97;;
209;SDS011;90;48.810;9.120;2023-04-24T12:50:06;3.23;;;3.10;;
209;SDS011;90;48.810;9.120;2023-04-24T12:52:34;3.60;;;3.07;;
209;SDS011;90;48.810;9.120;2023-04-24T12:55:00;2.90;;;2.70;;
209;SDS011;90;48.810;9.120;2023-04-24T12:57:28;2.83;;;2.70;;
209;SDS011;90;48.810;9.120;2023-04-24T12:59:57;3.47;;;2.80;;
209;SDS011;90;48.810;9.120;2023-04-24T13:02:25;4.53;;;2.77;;
209;SDS011;90;48.810;9.120;2023-04-24T13:04:54;3.20;;;3.00;;
209;SDS011;90;48.810;9.120;2023-04-24T13:07:20;2.80;;;2.60;;
209;SDS011;90;48.810;9.120;2023-04-24T13:09:47;2.93;;;2.73;;
209;SDS011;90;48.810;9.120;2023-04-24T13:12:15;3.63;;;3.47;;
209;SDS011;90;48.810;9.120;2023-04-24T13:14:42;3.00;;;2.80;;
209;SDS011;90;48.810;9.120;2023-04-24T13:17:10;3.77;;;3.57;;
209;SDS011;90;48.810;9.120;2023-04-24T13:19:38;3.90;;;3.53;;
209;SDS011;90;48.810;9.120;2023-04-24T13:22:06;4.57;;;3.80;;
209;SDS011;90;48.810;9.120;2023-04-24T13:24:36;3.50;;;3.37;;
209;SDS011;90;48.810;9.120;2023-04-24T13:27:04;3.27;;;3.07;;
209;SDS011;90;48.810;9.120;2023-04-24T13:29:31;3.73;;;3.53;;
209;SDS011;90;48.810;9.120;2023-04-24T13:31:58;3.40;;;3.27;;
209;SDS011;90;48.810;9.120;2023-04-24T13:34:27;3.60;;;3.20;;
209;SDS011;90;48.810;9.120;2023-04-24T13:36:55;3.83;;;3.70;;
209;SDS011;90;48.810;9.120;2023-04-24T13:39:23;4.57;;;3.63;;
209;SDS011;90;48.810;9.120;2023-04-24T13:41:50;3.20;;;3.00;;
209;SDS011;90;48.810;9.120;2023-04-24T13:44:17;3.10;;;2.97;;
209;SDS011;90;48.810;9.120;2023-04-24T13:46:45;3.27;;;2.90;;
209;SDS011;90;48.810;9.120;2023-04-24T13:49:14;5.60;;;2.80;;
209;SDS011;90;48.810;9.120;2023-04-24T13:51:43;4.30;;;2.87;;
209;SDS011;90;48.810;9.120;2023-04-24T13:54:10;2.70;;;2.50;;
209;SDS011;90;48.810;9.120;2023-04-24T13:56:37;3.60;;;2.90;;
209;SDS011;90;48.810;9.120;2023-04-24T13:59:05;7.60;;;2.50;;
209;SDS011;90;48.810;9.120;2023-04-24T14:01:32;2.40;;;2.20;;
209;SDS011;90;48.810;9.120;2023-04-24T14:03:58;2.17;;;2.03;;
209;SDS011;90;48.810;9.120;2023-04-24T14:06:25;2.90;;;2.70;;
209;SDS011;90;48.810;9.120;2023-04-24T14:08:53;3.27;;;3.07;;
209;SDS011;90;48.810;9.120;2023-04-24T14:11:20;3.10;;;2.90;;
209;SDS011;90;48.810;9.120;2023-04-24T14:13:47;3.23;;;2.97;;
209;SDS011;90;48.810;9.120;2023-04-24T14:16:14;3.57;;;3.37;;
209;SDS011;90;48.810;9.120;2023-04-24T14:18:41;4.13;;;3.30;;
209;SDS011;90;48.810;9.120;2023-04-24T14:21:08;3.73;;;3.03;;
209;SDS011;90;48.810;9.120;2023-04-24T14:23:34;3.00;;;2.80;;
209;SDS011;90;48.810;9.120;2023-04-24T14:26:03;3.00;;;2.83;;
209;SDS011;90;48.810;9.120;2023-04-24T14:28:30;3.40;;;3.20;;
209;SDS011;90;48.810;9.120;2023-04-24T14:30:57;3.33;;;3.13;;
209;SDS011;90;48.810;9.120;2023-04-24T14:33:23;5.00;;;3.40;;
209;SDS011;90;48.810;9.120;2023-04-24T14:35:50;5.57;;;2.80;;
209;SDS011;90;48.810;9.120;2023-04-24T14:38:17;5.07;;;2.87;;
209;SDS011;90;48.810;9.120;2023-04-24T14:40:43;3.47;;;3.27;;
209;SDS011;90;48.810;9.120;2023-04-24T14:43:12;2.80;;;2.60;;
209;SDS011;90;48.810;9.120;2023-04-24T14:45:38;3.13;;;2.93;;
209;SDS011;90;48.810;9.120;2023-04-24T14:48:06;3.27;;;3.00;;
209;SDS011;90;48.810;9.120;2023-04-24T14:50:37;3.77;;;3.40;;
209;SDS011;90;48.810;9.120;2023-04-24T14:53:05;3.70;;;3.03;;
209;SDS011;90;48.810;9.120;2023-04-24T14:55:32;3.07;;;2.87;;
209;SDS011;90;48.810;9.120;2023-04-24T14:58:07;3.20;;;3.00;;
209;SDS011;90;48.810;9.120;2023-04-24T15:00:35;3.50;;;2.97;;
209;SDS011;90;48.810;9.120;2023-04-24T15:03:02;9.10;;;3.47;;
209;SDS011;90;48.810;9.120;2023-04-24T15:05:29;3.30;;;3.10;;
209;SDS011;90;48.810;9.120;2023-04-24T15:07:56;3.27;;;3.07;;
209;SDS011;90;48.810;9.120;2023-04-24T15:10:23;3.47;;;3.27;;
209;SDS011;90;48.810;9.120;2023-04-24T15:12:50;3.33;;;3.10;;
209;SDS011;90;48.810;9.120;2023-04-24T15:15:17;7.70;;;4.03;;
209;SDS011;90;48.810;9.120;2023-04-24T15:17:45;3.23;;;3.03;;
209;SDS011;90;48.810;9.120;2023-04-24T15:20:12;4.30;;;3.40;;
209;SDS011;90;48.810;9.120;2023-04-24T15:22:39;3.70;;;3.50;;
209;SDS011;90;48.810;9.120;2023-04-24T15:25:06;29.07;;;7.53;;
209;SDS011;90;48.810;9.120;2023-04-24T15:27:38;10.53;;;4.60;;
209;SDS011;90;48.810;9.120;2023-04-24T15:30:09;5.17;;;4.20;;
209;SDS011;90;48.810;9.120;2023-04-24T15:32:37;6.80;;;3.93;;
209;SDS011;90;48.810;9.120;2023-04-24T15:35:06;4.23;;;3.97;;
209;SDS011;90;48.810;9.120;2023-04-24T15:37:33;5.50;;;3.57;;
209;SDS011;90;48.810;9.120;2023-04-24T15:40:00;6.03;;;3.87;;
209;SDS011;90;48.810;9.120;2023-04-24T15:42:29;5.63;;;4.07;;
209;SDS011;90;48.810;9.120;2023-04-24T15:44:55;5.57;;;3.60;;
209;SDS011;90;48.810;9.120;2023-04-24T15:47:22;4.30;;;3.47;;
209;SDS011;90;48.810;9.120;2023-04-24T15:49:49;3.50;;;3.30;;
209;SDS011;90;48.810;9.120;2023-04-24T15:52:18;3.17;;;2.97;;
209;SDS011;90;48.810;9.120;2023-04-24T15:54:46;2.60;;;2.40;;
209;SDS011;90;48.810;9.120;2023-04-24T15:57:13;3.80;;;3.40;;
209;SDS011;90;48.810;9.120;2023-04-24T15:59:40;3.33;;;3.00;;
209;SDS011;90;48.810;9.120;2023-04-24T16:02:06;3.40;;;3.20;;
209;SDS011;90;48.810;9.120;2023-04-24T16:04:35;3.17;;;2.97;;
209;SDS011;90;48.810;9.120;2023-04-24T16:07:02;3.40;;;3.20;;
209;SDS011;90;48.810;9.120;2023-04-24T16:09:30;3.33;;;3.07;;